KBZN/BZN METAR and TAF weather

Enter ICAO airport designator
Station Type Date Time Source
KBZN METAR 2020/08/14 16:56 UTC NOAA

KBZN 141656Z 01004KT 10SM CLR 19/05 A3024 RMK AO2 SLP213 T01890050


Station Type Date Time Source
KBZN Decoded METAR 2020/08/14 16:56 UTC NOAA

BOZEMAN GALLATIN FIELD, MT, United States (KBZN) 45-47N 111-09W 1361M
Aug 14, 2020 - 12:56 PM EDT / 2020.08.14 1656 UTC
Wind: from the N (010 degrees) at 5 MPH (4 KT):0
Visibility: 10 mile(s):0
Sky conditions: clear
Temperature: 66.0 F (18.9 C)
Dew Point: 41.0 F (5.0 C)
Relative Humidity: 39%
Pressure (altimeter): 30.24 in. Hg (1024 hPa)
ob: KBZN 141656Z 01004KT 10SM CLR 19/05 A3024 RMK AO2 SLP213 T01890050
cycle: 17

Station Type Date Time Source
KBZN TAF 2020/08/14 18:22 UTC NOAA

TAF KBZN 141720Z 1418/1524 VRB05KT P6SM SKC
FM142000 31009KT P6SM SKC
FM150300 VRB05KT P6SM SKC

Example: see airport list